sensor_id;sensor_type;location;lat;lon;timestamp;pressure;altitude;pressure_sealevel;temperature;humidity
62038;BME280;47991;42.974;12.082;2023-06-04T00:00:26;97830.39;;;13.74;82.17
62038;BME280;47991;42.974;12.082;2023-06-04T00:03:12;97826.11;;;13.75;81.79
62038;BME280;47991;42.974;12.082;2023-06-04T00:05:39;97827.91;;;13.70;82.22
62038;BME280;47991;42.974;12.082;2023-06-04T00:08:05;97818.67;;;13.70;82.54
62038;BME280;47991;42.974;12.082;2023-06-04T00:10:31;97819.79;;;13.68;82.42
62038;BME280;47991;42.974;12.082;2023-06-04T00:13:00;97817.39;;;13.71;82.21
62038;BME280;47991;42.974;12.082;2023-06-04T00:15:26;97818.49;;;13.74;82.15
62038;BME280;47991;42.974;12.082;2023-06-04T00:17:52;97818.73;;;13.73;82.12
62038;BME280;47991;42.974;12.082;2023-06-04T00:20:18;97820.27;;;13.66;81.67
62038;BME280;47991;42.974;12.082;2023-06-04T00:22:45;97821.97;;;13.54;81.74
62038;BME280;47991;42.974;12.082;2023-06-04T00:25:11;97819.49;;;13.44;82.07
62038;BME280;47991;42.974;12.082;2023-06-04T00:27:37;97813.91;;;13.42;82.31
62038;BME280;47991;42.974;12.082;2023-06-04T00:30:04;97815.36;;;13.45;82.24
62038;BME280;47991;42.974;12.082;2023-06-04T00:32:31;97815.25;;;13.49;81.98
62038;BME280;47991;42.974;12.082;2023-06-04T00:34:57;97816.10;;;13.45;81.97
62038;BME280;47991;42.974;12.082;2023-06-04T00:37:28;97811.27;;;13.41;81.93
62038;BME280;47991;42.974;12.082;2023-06-04T00:39:55;97808.95;;;13.41;82.04
62038;BME280;47991;42.974;12.082;2023-06-04T00:42:21;97804.17;;;13.41;81.93
62038;BME280;47991;42.974;12.082;2023-06-04T00:44:47;97801.30;;;13.42;82.18
62038;BME280;47991;42.974;12.082;2023-06-04T00:47:14;97800.69;;;13.35;82.57
62038;BME280;47991;42.974;12.082;2023-06-04T00:49:41;97799.90;;;13.32;82.34
62038;BME280;47991;42.974;12.082;2023-06-04T00:52:08;97804.39;;;13.31;82.59
62038;BME280;47991;42.974;12.082;2023-06-04T00:54:36;97804.73;;;13.31;82.67
62038;BME280;47991;42.974;12.082;2023-06-04T00:57:04;97801.14;;;13.33;82.57
62038;BME280;47991;42.974;12.082;2023-06-04T00:59:32;97799.86;;;13.34;82.30
62038;BME280;47991;42.974;12.082;2023-06-04T01:02:03;97800.39;;;13.28;82.11
62038;BME280;47991;42.974;12.082;2023-06-04T01:07:36;97807.16;;;13.14;82.26
62038;BME280;47991;42.974;12.082;2023-06-04T01:10:03;97810.63;;;13.11;82.47
62038;BME280;47991;42.974;12.082;2023-06-04T01:12:29;97814.14;;;13.12;82.59
62038;BME280;47991;42.974;12.082;2023-06-04T01:14:56;97809.77;;;13.15;82.45
62038;BME280;47991;42.974;12.082;2023-06-04T01:17:36;97807.12;;;13.15;82.43
62038;BME280;47991;42.974;12.082;2023-06-04T01:25:24;97808.49;;;13.20;82.59
62038;BME280;47991;42.974;12.082;2023-06-04T01:27:55;97806.00;;;13.20;82.23
62038;BME280;47991;42.974;12.082;2023-06-04T01:30:36;97808.90;;;13.19;82.36
62038;BME280;47991;42.974;12.082;2023-06-04T01:33:10;97810.30;;;13.20;82.49
62038;BME280;47991;42.974;12.082;2023-06-04T01:35:37;97804.08;;;13.25;82.25
62038;BME280;47991;42.974;12.082;2023-06-04T01:38:03;97806.33;;;13.21;82.10
62038;BME280;47991;42.974;12.082;2023-06-04T01:40:30;97804.85;;;13.18;82.32
62038;BME280;47991;42.974;12.082;2023-06-04T01:42:57;97800.88;;;13.10;82.35
62038;BME280;47991;42.974;12.082;2023-06-04T01:45:26;97802.02;;;13.08;82.21
62038;BME280;47991;42.974;12.082;2023-06-04T01:47:53;97805.42;;;13.03;82.11
62038;BME280;47991;42.974;12.082;2023-06-04T01:50:19;97806.24;;;12.95;82.92
62038;BME280;47991;42.974;12.082;2023-06-04T01:52:46;97805.99;;;12.93;82.80
62038;BME280;47991;42.974;12.082;2023-06-04T01:55:14;97809.67;;;12.89;82.82
62038;BME280;47991;42.974;12.082;2023-06-04T01:57:42;97809.41;;;12.86;82.72
62038;BME280;47991;42.974;12.082;2023-06-04T02:00:11;97806.63;;;12.85;82.73
62038;BME280;47991;42.974;12.082;2023-06-04T02:02:38;97802.55;;;12.85;82.87
62038;BME280;47991;42.974;12.082;2023-06-04T02:05:05;97802.90;;;12.85;82.87
62038;BME280;47991;42.974;12.082;2023-06-04T02:07:35;97799.65;;;12.82;83.03
62038;BME280;47991;42.974;12.082;2023-06-04T02:10:01;97796.17;;;12.80;83.45
62038;BME280;47991;42.974;12.082;2023-06-04T02:12:27;97791.50;;;12.81;83.23
62038;BME280;47991;42.974;12.082;2023-06-04T02:14:53;97794.11;;;12.88;82.95
62038;BME280;47991;42.974;12.082;2023-06-04T02:17:19;97789.95;;;12.94;82.93
62038;BME280;47991;42.974;12.082;2023-06-04T02:19:46;97794.05;;;12.99;83.13
62038;BME280;47991;42.974;12.082;2023-06-04T02:22:17;97793.73;;;13.02;83.02
62038;BME280;47991;42.974;12.082;2023-06-04T02:24:44;97796.33;;;12.99;83.04
62038;BME280;47991;42.974;12.082;2023-06-04T02:27:12;97797.55;;;12.95;83.12
62038;BME280;47991;42.974;12.082;2023-06-04T02:29:39;97802.88;;;12.95;83.37
62038;BME280;47991;42.974;12.082;2023-06-04T02:32:06;97806.38;;;13.01;83.46
62038;BME280;47991;42.974;12.082;2023-06-04T02:34:34;97808.45;;;13.07;83.39
62038;BME280;47991;42.974;12.082;2023-06-04T02:37:01;97811.81;;;13.13;83.77
62038;BME280;47991;42.974;12.082;2023-06-04T02:39:28;97809.92;;;13.06;84.59
62038;BME280;47991;42.974;12.082;2023-06-04T02:41:54;97810.73;;;13.04;84.59
62038;BME280;47991;42.974;12.082;2023-06-04T02:44:21;97806.48;;;12.99;84.34
62038;BME280;47991;42.974;12.082;2023-06-04T02:46:47;97806.46;;;12.99;84.96
62038;BME280;47991;42.974;12.082;2023-06-04T02:49:13;97801.61;;;13.05;84.58
62038;BME280;47991;42.974;12.082;2023-06-04T02:51:43;97797.69;;;13.15;84.54
62038;BME280;47991;42.974;12.082;2023-06-04T02:54:09;97802.64;;;13.20;84.80
62038;BME280;47991;42.974;12.082;2023-06-04T02:56:36;97801.66;;;13.18;85.16
62038;BME280;47991;42.974;12.082;2023-06-04T02:59:03;97798.00;;;13.17;86.56
62038;BME280;47991;42.974;12.082;2023-06-04T03:01:31;97801.42;;;13.24;85.29
62038;BME280;47991;42.974;12.082;2023-06-04T03:03:57;97795.19;;;13.35;85.03
62038;BME280;47991;42.974;12.082;2023-06-04T03:06:23;97800.39;;;13.43;84.72
62038;BME280;47991;42.974;12.082;2023-06-04T03:08:50;97796.75;;;13.49;84.66
62038;BME280;47991;42.974;12.082;2023-06-04T03:11:17;97793.77;;;13.53;84.70
62038;BME280;47991;42.974;12.082;2023-06-04T03:13:47;97792.73;;;13.57;84.62
62038;BME280;47991;42.974;12.082;2023-06-04T03:16:14;97794.95;;;13.59;84.60
62038;BME280;47991;42.974;12.082;2023-06-04T03:18:41;97791.08;;;13.62;84.87
62038;BME280;47991;42.974;12.082;2023-06-04T03:21:08;97792.71;;;13.66;85.19
62038;BME280;47991;42.974;12.082;2023-06-04T03:23:35;97789.06;;;13.73;85.01
62038;BME280;47991;42.974;12.082;2023-06-04T03:26:02;97784.71;;;13.75;85.17
62038;BME280;47991;42.974;12.082;2023-06-04T03:28:29;97786.90;;;13.78;85.61
62038;BME280;47991;42.974;12.082;2023-06-04T03:30:56;97788.71;;;13.81;85.66
62038;BME280;47991;42.974;12.082;2023-06-04T03:33:23;97787.54;;;13.84;85.87
62038;BME280;47991;42.974;12.082;2023-06-04T03:35:52;97787.52;;;13.89;85.93
62038;BME280;47991;42.974;12.082;2023-06-04T03:38:19;97787.21;;;13.96;86.16
62038;BME280;47991;42.974;12.082;2023-06-04T03:40:46;97792.16;;;13.93;89.43
62038;BME280;47991;42.974;12.082;2023-06-04T03:43:12;97788.28;;;13.83;88.63
62038;BME280;47991;42.974;12.082;2023-06-04T03:45:38;97788.45;;;13.75;89.73
62038;BME280;47991;42.974;12.082;2023-06-04T03:48:04;97788.02;;;13.63;90.19
62038;BME280;47991;42.974;12.082;2023-06-04T03:50:31;97789.67;;;13.67;89.31
62038;BME280;47991;42.974;12.082;2023-06-04T03:52:57;97780.80;;;13.71;88.83
62038;BME280;47991;42.974;12.082;2023-06-04T03:55:23;97778.14;;;13.75;90.67
62038;BME280;47991;42.974;12.082;2023-06-04T03:57:50;97777.66;;;13.74;90.27
62038;BME280;47991;42.974;12.082;2023-06-04T04:00:16;97778.59;;;13.77;90.71
62038;BME280;47991;42.974;12.082;2023-06-04T04:02:42;97774.94;;;13.79;91.76
62038;BME280;47991;42.974;12.082;2023-06-04T04:05:09;97773.84;;;13.80;91.10
62038;BME280;47991;42.974;12.082;2023-06-04T04:07:37;97782.06;;;13.79;91.61
62038;BME280;47991;42.974;12.082;2023-06-04T04:10:03;97783.54;;;13.77;92.68
62038;BME280;47991;42.974;12.082;2023-06-04T04:12:31;97786.73;;;13.73;93.99
62038;BME280;47991;42.974;12.082;2023-06-04T04:14:57;97785.95;;;13.71;93.93
62038;BME280;47991;42.974;12.082;2023-06-04T04:17:25;97790.06;;;13.65;96.64
62038;BME280;47991;42.974;12.082;2023-06-04T04:19:52;97786.94;;;13.69;95.95
62038;BME280;47991;42.974;12.082;2023-06-04T04:22:18;97789.50;;;13.75;95.68
62038;BME280;47991;42.974;12.082;2023-06-04T04:24:44;97785.66;;;13.82;95.55
62038;BME280;47991;42.974;12.082;2023-06-04T04:27:10;97787.40;;;13.87;95.72
62038;BME280;47991;42.974;12.082;2023-06-04T04:29:41;97789.49;;;14.01;94.60
62038;BME280;47991;42.974;12.082;2023-06-04T04:32:25;97791.33;;;14.13;93.65
62038;BME280;47991;42.974;12.082;2023-06-04T04:34:54;97790.55;;;14.18;93.94
62038;BME280;47991;42.974;12.082;2023-06-04T04:37:21;97787.68;;;14.19;94.17
62038;BME280;47991;42.974;12.082;2023-06-04T04:39:48;97779.44;;;14.20;94.55
62038;BME280;47991;42.974;12.082;2023-06-04T04:42:20;97772.80;;;14.22;96.05
62038;BME280;47991;42.974;12.082;2023-06-04T04:44:46;97780.83;;;14.17;97.19
62038;BME280;47991;42.974;12.082;2023-06-04T04:47:15;97784.59;;;14.20;95.65
62038;BME280;47991;42.974;12.082;2023-06-04T04:49:41;97785.66;;;14.20;96.61
62038;BME280;47991;42.974;12.082;2023-06-04T04:52:08;97788.12;;;14.25;95.34
62038;BME280;47991;42.974;12.082;2023-06-04T04:54:34;97790.24;;;14.26;96.56
62038;BME280;47991;42.974;12.082;2023-06-04T04:57:00;97790.52;;;14.23;96.54
62038;BME280;47991;42.974;12.082;2023-06-04T04:59:26;97789.23;;;14.25;96.31
62038;BME280;47991;42.974;12.082;2023-06-04T05:01:53;97791.83;;;14.26;97.13
62038;BME280;47991;42.974;12.082;2023-06-04T05:04:19;97796.12;;;14.21;97.08
62038;BME280;47991;42.974;12.082;2023-06-04T05:06:46;97798.14;;;14.20;96.46
62038;BME280;47991;42.974;12.082;2023-06-04T05:09:12;97797.63;;;14.28;96.39
62038;BME280;47991;42.974;12.082;2023-06-04T05:11:38;97798.10;;;14.33;96.50
62038;BME280;47991;42.974;12.082;2023-06-04T05:14:04;97797.25;;;14.36;95.84
62038;BME280;47991;42.974;12.082;2023-06-04T05:16:31;97796.94;;;14.39;96.73
62038;BME280;47991;42.974;12.082;2023-06-04T05:18:57;97800.09;;;14.40;97.05
62038;BME280;47991;42.974;12.082;2023-06-04T05:21:23;97797.79;;;14.40;96.44
62038;BME280;47991;42.974;12.082;2023-06-04T05:23:50;97799.83;;;14.47;96.49
62038;BME280;47991;42.974;12.082;2023-06-04T05:26:17;97799.27;;;14.51;96.67
62038;BME280;47991;42.974;12.082;2023-06-04T05:28:43;97800.79;;;14.53;95.73
62038;BME280;47991;42.974;12.082;2023-06-04T05:31:10;97799.77;;;14.61;95.34
62038;BME280;47991;42.974;12.082;2023-06-04T05:33:39;97802.06;;;14.70;94.99
62038;BME280;47991;42.974;12.082;2023-06-04T05:36:05;97799.30;;;14.80;94.64
62038;BME280;47991;42.974;12.082;2023-06-04T05:38:32;97796.41;;;14.89;94.13
62038;BME280;47991;42.974;12.082;2023-06-04T05:40:58;97799.11;;;14.88;93.97
62038;BME280;47991;42.974;12.082;2023-06-04T05:43:24;97805.65;;;14.85;94.31
62038;BME280;47991;42.974;12.082;2023-06-04T05:45:51;97813.80;;;14.82;94.78
62038;BME280;47991;42.974;12.082;2023-06-04T05:48:17;97815.51;;;14.87;94.58
62038;BME280;47991;42.974;12.082;2023-06-04T05:50:44;97817.23;;;14.96;94.13
62038;BME280;47991;42.974;12.082;2023-06-04T05:53:10;97823.02;;;15.06;94.00
62038;BME280;47991;42.974;12.082;2023-06-04T05:55:36;97828.02;;;15.14;93.45
62038;BME280;47991;42.974;12.082;2023-06-04T05:58:03;97829.30;;;15.21;93.67
62038;BME280;47991;42.974;12.082;2023-06-04T06:00:29;97838.42;;;15.31;93.40
62038;BME280;47991;42.974;12.082;2023-06-04T06:02:56;97842.58;;;15.38;92.97
62038;BME280;47991;42.974;12.082;2023-06-04T06:05:22;97843.85;;;15.42;92.84
62038;BME280;47991;42.974;12.082;2023-06-04T06:07:48;97847.66;;;15.33;93.52
62038;BME280;47991;42.974;12.082;2023-06-04T06:10:14;97844.61;;;14.97;94.66
62038;BME280;47991;42.974;12.082;2023-06-04T06:12:41;97846.73;;;14.82;96.68
62038;BME280;47991;42.974;12.082;2023-06-04T06:15:08;97847.77;;;14.90;96.12
62038;BME280;47991;42.974;12.082;2023-06-04T06:17:34;97853.65;;;14.98;96.11
62038;BME280;47991;42.974;12.082;2023-06-04T06:20:01;97855.14;;;15.05;95.21
62038;BME280;47991;42.974;12.082;2023-06-04T06:22:32;97860.25;;;15.06;97.33
62038;BME280;47991;42.974;12.082;2023-06-04T06:24:58;97857.42;;;15.05;96.97
62038;BME280;47991;42.974;12.082;2023-06-04T06:27:24;97862.79;;;15.09;95.92
62038;BME280;47991;42.974;12.082;2023-06-04T06:29:51;97862.77;;;15.13;95.71
62038;BME280;47991;42.974;12.082;2023-06-04T06:32:17;97863.64;;;15.33;95.61
62038;BME280;47991;42.974;12.082;2023-06-04T06:34:43;97866.71;;;15.55;94.85
62038;BME280;47991;42.974;12.082;2023-06-04T06:37:09;97874.95;;;15.73;93.46
62038;BME280;47991;42.974;12.082;2023-06-04T06:39:36;97875.98;;;15.79;93.08
62038;BME280;47991;42.974;12.082;2023-06-04T06:42:02;97876.73;;;15.93;93.24
62038;BME280;47991;42.974;12.082;2023-06-04T06:44:28;97877.27;;;16.04;93.19
62038;BME280;47991;42.974;12.082;2023-06-04T06:46:54;97880.23;;;16.20;92.12
62038;BME280;47991;42.974;12.082;2023-06-04T06:49:20;97881.66;;;16.13;90.52
62038;BME280;47991;42.974;12.082;2023-06-04T06:51:46;97883.33;;;16.22;91.33
62038;BME280;47991;42.974;12.082;2023-06-04T06:54:16;97876.01;;;16.26;91.51
62038;BME280;47991;42.974;12.082;2023-06-04T06:56:42;97877.00;;;16.21;92.98
62038;BME280;47991;42.974;12.082;2023-06-04T06:59:08;97876.48;;;16.24;92.82
62038;BME280;47991;42.974;12.082;2023-06-04T07:01:35;97878.92;;;16.25;93.23
62038;BME280;47991;42.974;12.082;2023-06-04T07:04:01;97876.65;;;16.27;94.62
62038;BME280;47991;42.974;12.082;2023-06-04T07:06:27;97873.64;;;16.27;93.73
62038;BME280;47991;42.974;12.082;2023-06-04T07:08:53;97867.58;;;16.27;93.07
62038;BME280;47991;42.974;12.082;2023-06-04T07:11:20;97872.92;;;16.27;93.73
62038;BME280;47991;42.974;12.082;2023-06-04T07:13:47;97879.23;;;16.40;94.88
62038;BME280;47991;42.974;12.082;2023-06-04T07:16:13;97883.36;;;16.64;93.56
62038;BME280;47991;42.974;12.082;2023-06-04T07:18:39;97877.71;;;16.92;91.62
62038;BME280;47991;42.974;12.082;2023-06-04T07:21:06;97877.75;;;17.11;90.93
62038;BME280;47991;42.974;12.082;2023-06-04T07:23:32;97882.15;;;17.23;89.52
62038;BME280;47991;42.974;12.082;2023-06-04T07:25:58;97883.98;;;17.29;89.82
62038;BME280;47991;42.974;12.082;2023-06-04T07:28:24;97874.84;;;17.39;90.07
62038;BME280;47991;42.974;12.082;2023-06-04T07:30:50;97871.23;;;17.50;89.09
62038;BME280;47991;42.974;12.082;2023-06-04T07:33:16;97865.25;;;17.64;88.48
62038;BME280;47991;42.974;12.082;2023-06-04T07:35:42;97864.98;;;17.82;88.35
62038;BME280;47991;42.974;12.082;2023-06-04T07:38:08;97872.89;;;18.10;88.38
62038;BME280;47991;42.974;12.082;2023-06-04T07:40:35;97872.06;;;18.12;86.28
62038;BME280;47991;42.974;12.082;2023-06-04T07:43:01;97872.29;;;18.11;86.73
62038;BME280;47991;42.974;12.082;2023-06-04T07:45:27;97867.14;;;18.14;87.32
62038;BME280;47991;42.974;12.082;2023-06-04T07:47:55;97873.66;;;18.03;86.66
62038;BME280;47991;42.974;12.082;2023-06-04T07:50:21;97874.77;;;18.02;87.08
62038;BME280;47991;42.974;12.082;2023-06-04T07:52:47;97879.61;;;17.93;88.46
62038;BME280;47991;42.974;12.082;2023-06-04T07:55:14;97875.06;;;17.74;88.34
62038;BME280;47991;42.974;12.082;2023-06-04T07:57:40;97878.55;;;17.76;88.38
62038;BME280;47991;42.974;12.082;2023-06-04T08:00:08;97875.20;;;17.78;87.32
62038;BME280;47991;42.974;12.082;2023-06-04T08:02:34;97879.15;;;17.72;87.47
62038;BME280;47991;42.974;12.082;2023-06-04T08:05:00;97869.77;;;17.70;88.51
62038;BME280;47991;42.974;12.082;2023-06-04T08:07:29;97864.68;;;17.81;88.00
62038;BME280;47991;42.974;12.082;2023-06-04T08:09:56;97867.20;;;18.00;87.78
62038;BME280;47991;42.974;12.082;2023-06-04T08:12:22;97871.83;;;18.10;87.74
62038;BME280;47991;42.974;12.082;2023-06-04T08:14:48;97866.67;;;18.25;87.05
62038;BME280;47991;42.974;12.082;2023-06-04T08:17:16;97863.60;;;18.32;85.71
62038;BME280;47991;42.974;12.082;2023-06-04T08:19:42;97867.29;;;18.24;85.56
62038;BME280;47991;42.974;12.082;2023-06-04T08:22:08;97865.75;;;18.35;85.77
62038;BME280;47991;42.974;12.082;2023-06-04T08:24:37;97867.98;;;18.43;85.47
62038;BME280;47991;42.974;12.082;2023-06-04T08:27:03;97871.49;;;18.65;85.39
62038;BME280;47991;42.974;12.082;2023-06-04T08:29:30;97873.14;;;18.65;84.73
62038;BME280;47991;42.974;12.082;2023-06-04T08:31:56;97877.27;;;18.76;85.28
62038;BME280;47991;42.974;12.082;2023-06-04T08:34:22;97869.02;;;18.95;84.47
62038;BME280;47991;42.974;12.082;2023-06-04T08:36:49;97868.30;;;19.07;83.96
62038;BME280;47991;42.974;12.082;2023-06-04T08:39:15;97871.40;;;19.21;84.05
62038;BME280;47991;42.974;12.082;2023-06-04T08:41:48;97866.64;;;19.40;82.61
62038;BME280;47991;42.974;12.082;2023-06-04T08:44:16;97870.17;;;19.52;81.78
62038;BME280;47991;42.974;12.082;2023-06-04T08:46:43;97866.42;;;19.60;81.67
62038;BME280;47991;42.974;12.082;2023-06-04T08:49:12;97862.16;;;19.88;81.70
62038;BME280;47991;42.974;12.082;2023-06-04T08:51:39;97865.81;;;20.04;79.82
62038;BME280;47991;42.974;12.082;2023-06-04T08:54:07;97866.05;;;20.06;79.91
62038;BME280;47991;42.974;12.082;2023-06-04T08:56:34;97867.17;;;20.22;78.86
62038;BME280;47991;42.974;12.082;2023-06-04T08:59:06;97868.73;;;20.36;78.34
62038;BME280;47991;42.974;12.082;2023-06-04T09:01:34;97875.35;;;20.31;77.35
62038;BME280;47991;42.974;12.082;2023-06-04T09:04:05;97873.39;;;20.39;77.30
62038;BME280;47991;42.974;12.082;2023-06-04T09:06:32;97873.27;;;20.32;76.69
62038;BME280;47991;42.974;12.082;2023-06-04T09:09:01;97872.77;;;20.53;76.66
62038;BME280;47991;42.974;12.082;2023-06-04T09:11:33;97866.47;;;20.70;76.92
62038;BME280;47991;42.974;12.082;2023-06-04T09:14:04;97870.91;;;20.74;77.35
62038;BME280;47991;42.974;12.082;2023-06-04T09:16:45;97868.27;;;21.14;76.09
62038;BME280;47991;42.974;12.082;2023-06-04T09:19:11;97870.34;;;21.39;75.96
62038;BME280;47991;42.974;12.082;2023-06-04T09:21:55;97869.55;;;21.76;75.11
62038;BME280;47991;42.974;12.082;2023-06-04T09:24:42;97873.17;;;22.23;74.11
62038;BME280;47991;42.974;12.082;2023-06-04T09:27:16;97878.18;;;22.48;72.75
62038;BME280;47991;42.974;12.082;2023-06-04T09:29:53;97882.98;;;22.36;71.83
62038;BME280;47991;42.974;12.082;2023-06-04T09:32:26;97881.62;;;22.16;72.99
62038;BME280;47991;42.974;12.082;2023-06-04T09:35:11;97883.44;;;21.60;74.37
62038;BME280;47991;42.974;12.082;2023-06-04T09:37:39;97888.42;;;21.51;76.32
62038;BME280;47991;42.974;12.082;2023-06-04T09:40:07;97891.23;;;21.59;74.69
62038;BME280;47991;42.974;12.082;2023-06-04T09:45:10;97893.71;;;21.34;74.53
62038;BME280;47991;42.974;12.082;2023-06-04T09:47:42;97893.88;;;21.29;74.91
62038;BME280;47991;42.974;12.082;2023-06-04T09:50:12;97891.00;;;21.42;75.08
62038;BME280;47991;42.974;12.082;2023-06-04T09:52:38;97896.91;;;21.58;74.96
62038;BME280;47991;42.974;12.082;2023-06-04T09:55:18;97895.24;;;21.74;74.94
62038;BME280;47991;42.974;12.082;2023-06-04T09:57:50;97892.66;;;21.80;74.54
62038;BME280;47991;42.974;12.082;2023-06-04T10:00:18;97891.77;;;21.70;73.53
62038;BME280;47991;42.974;12.082;2023-06-04T10:02:47;97888.92;;;21.57;73.60
62038;BME280;47991;42.974;12.082;2023-06-04T10:05:14;97886.92;;;21.57;73.52
62038;BME280;47991;42.974;12.082;2023-06-04T10:07:46;97885.31;;;21.64;73.42
62038;BME280;47991;42.974;12.082;2023-06-04T10:10:16;97882.27;;;21.74;72.66
62038;BME280;47991;42.974;12.082;2023-06-04T10:12:45;97877.06;;;21.91;72.98
62038;BME280;47991;42.974;12.082;2023-06-04T10:15:17;97876.27;;;22.12;73.08
62038;BME280;47991;42.974;12.082;2023-06-04T10:17:43;97869.14;;;22.26;72.40
62038;BME280;47991;42.974;12.082;2023-06-04T10:20:10;97860.09;;;22.39;73.16
62038;BME280;47991;42.974;12.082;2023-06-04T10:22:37;97858.14;;;22.51;72.25
62038;BME280;47991;42.974;12.082;2023-06-04T10:25:04;97857.09;;;22.50;71.91
62038;BME280;47991;42.974;12.082;2023-06-04T10:27:31;97856.71;;;22.74;72.18
62038;BME280;47991;42.974;12.082;2023-06-04T10:29:58;97854.88;;;22.98;71.29
62038;BME280;47991;42.974;12.082;2023-06-04T10:32:29;97856.86;;;23.14;70.19
62038;BME280;47991;42.974;12.082;2023-06-04T10:34:56;97848.45;;;23.11;68.39
62038;BME280;47991;42.974;12.082;2023-06-04T10:37:27;97850.20;;;23.24;69.06
62038;BME280;47991;42.974;12.082;2023-06-04T10:39:57;97845.34;;;23.14;68.36
62038;BME280;47991;42.974;12.082;2023-06-04T10:42:24;97847.09;;;23.01;68.25
62038;BME280;47991;42.974;12.082;2023-06-04T10:44:53;97845.94;;;22.92;69.31
62038;BME280;47991;42.974;12.082;2023-06-04T10:49:46;97846.53;;;23.38;68.84
62038;BME280;47991;42.974;12.082;2023-06-04T10:52:12;97845.31;;;23.42;67.79
62038;BME280;47991;42.974;12.082;2023-06-04T10:54:38;97845.73;;;23.46;68.76
62038;BME280;47991;42.974;12.082;2023-06-04T10:57:15;97844.20;;;23.67;67.42
62038;BME280;47991;42.974;12.082;2023-06-04T10:59:59;97835.16;;;23.77;67.32
62038;BME280;47991;42.974;12.082;2023-06-04T11:02:25;97836.46;;;24.10;66.79
62038;BME280;47991;42.974;12.082;2023-06-04T11:05:18;97832.75;;;24.33;65.99
62038;BME280;47991;42.974;12.082;2023-06-04T11:07:46;97826.64;;;24.65;65.09
62038;BME280;47991;42.974;12.082;2023-06-04T11:10:14;97825.92;;;24.80;62.86
62038;BME280;47991;42.974;12.082;2023-06-04T11:15:09;97824.61;;;24.89;61.88
62038;BME280;47991;42.974;12.082;2023-06-04T11:17:36;97813.81;;;24.88;62.91
62038;BME280;47991;42.974;12.082;2023-06-04T11:20:02;97810.64;;;24.91;62.30
62038;BME280;47991;42.974;12.082;2023-06-04T11:22:32;97816.27;;;24.59;62.03
62038;BME280;47991;42.974;12.082;2023-06-04T11:25:00;97825.33;;;24.20;63.17
62038;BME280;47991;42.974;12.082;2023-06-04T11:27:26;97827.05;;;23.99;62.35
62038;BME280;47991;42.974;12.082;2023-06-04T11:29:53;97820.66;;;23.70;62.04
62038;BME280;47991;42.974;12.082;2023-06-04T11:32:23;97814.24;;;23.63;63.36
62038;BME280;47991;42.974;12.082;2023-06-04T11:34:50;97814.20;;;23.79;64.48
62038;BME280;47991;42.974;12.082;2023-06-04T11:37:16;97816.26;;;24.01;63.95
62038;BME280;47991;42.974;12.082;2023-06-04T11:39:43;97817.15;;;24.24;63.05
62038;BME280;47991;42.974;12.082;2023-06-04T11:42:10;97817.77;;;24.33;61.71
62038;BME280;47991;42.974;12.082;2023-06-04T11:44:36;97816.20;;;24.14;62.13
62038;BME280;47991;42.974;12.082;2023-06-04T11:47:08;97816.38;;;23.95;61.19
62038;BME280;47991;42.974;12.082;2023-06-04T11:49:34;97808.91;;;23.91;62.80
62038;BME280;47991;42.974;12.082;2023-06-04T11:52:02;97809.70;;;23.90;63.39
62038;BME280;47991;42.974;12.082;2023-06-04T11:54:29;97802.66;;;23.90;63.73
62038;BME280;47991;42.974;12.082;2023-06-04T11:56:55;97799.80;;;23.92;61.98
62038;BME280;47991;42.974;12.082;2023-06-04T11:59:21;97799.69;;;23.87;62.12
62038;BME280;47991;42.974;12.082;2023-06-04T12:01:48;97797.06;;;23.72;62.27
62038;BME280;47991;42.974;12.082;2023-06-04T12:04:19;97802.48;;;23.75;63.81
62038;BME280;47991;42.974;12.082;2023-06-04T12:06:59;97803.36;;;23.82;62.06
62038;BME280;47991;42.974;12.082;2023-06-04T12:09:31;97804.67;;;23.85;62.10
62038;BME280;47991;42.974;12.082;2023-06-04T12:11:59;97807.26;;;23.92;62.78
62038;BME280;47991;42.974;12.082;2023-06-04T12:14:26;97807.91;;;23.72;60.15
62038;BME280;47991;42.974;12.082;2023-06-04T12:17:09;97807.90;;;23.59;58.69
62038;BME280;47991;42.974;12.082;2023-06-04T12:19:47;97814.54;;;23.48;58.09
62038;BME280;47991;42.974;12.082;2023-06-04T12:22:16;97808.58;;;23.37;58.76
62038;BME280;47991;42.974;12.082;2023-06-04T12:24:50;97810.58;;;23.30;58.23
62038;BME280;47991;42.974;12.082;2023-06-04T12:27:21;97808.00;;;23.21;59.04
62038;BME280;47991;42.974;12.082;2023-06-04T12:30:07;97811.58;;;23.10;60.36
62038;BME280;47991;42.974;12.082;2023-06-04T12:32:36;97815.49;;;22.90;59.13
62038;BME280;47991;42.974;12.082;2023-06-04T12:35:03;97816.59;;;22.64;59.28
62038;BME280;47991;42.974;12.082;2023-06-04T12:37:30;97810.77;;;22.48;59.70
62038;BME280;47991;42.974;12.082;2023-06-04T12:39:56;97807.52;;;22.41;59.27
62038;BME280;47991;42.974;12.082;2023-06-04T12:42:22;97807.34;;;22.31;59.47
62038;BME280;47991;42.974;12.082;2023-06-04T12:44:49;97801.05;;;22.14;59.19
62038;BME280;47991;42.974;12.082;2023-06-04T12:47:15;97792.71;;;21.93;59.60
62038;BME280;47991;42.974;12.082;2023-06-04T12:49:44;97793.90;;;21.79;60.26
62038;BME280;47991;42.974;12.082;2023-06-04T12:52:11;97797.77;;;21.66;61.40
62038;BME280;47991;42.974;12.082;2023-06-04T12:54:37;97797.52;;;21.56;62.10
62038;BME280;47991;42.974;12.082;2023-06-04T12:57:03;97797.58;;;21.23;63.01
62038;BME280;47991;42.974;12.082;2023-06-04T12:59:29;97799.55;;;21.25;63.27
62038;BME280;47991;42.974;12.082;2023-06-04T13:01:55;97800.58;;;21.34;62.25
62038;BME280;47991;42.974;12.082;2023-06-04T13:04:23;97799.11;;;21.39;61.98
62038;BME280;47991;42.974;12.082;2023-06-04T13:06:52;97793.41;;;21.46;62.41
62038;BME280;47991;42.974;12.082;2023-06-04T13:09:21;97788.89;;;21.54;63.34